ADDS METAR Data INFO
IDs: Format: Raw Decoded Include TAF

Data at: 2314 UTC 16 Jan 2018

KONA 162255Z AUTO 30006KT 10SM CLR M12/M16 A3061 RMK AO2
KONA 162235Z AUTO 29005KT 10SM CLR M11/M16 A3061 RMK AO2
KONA 162215Z AUTO 28004KT 10SM CLR M11/M16 A3061 RMK AO2
KONA 162155Z AUTO 29005KT 10SM CLR M10/M15 A3061 RMK AO2
KONA 162135Z AUTO 30004KT 10SM CLR M10/M15 A3060 RMK AO2
KONA 162115Z AUTO 29005KT 10SM CLR M10/M15 A3060 RMK AO2
KONA 162055Z AUTO 31007KT 10SM CLR M10/M15 A3060 RMK AO2
KONA 162035Z AUTO 30006KT 10SM CLR M10/M14 A3059 RMK AO2
KONA 162015Z AUTO 30006KT 10SM CLR M10/M14 A3059 RMK AO2
KONA 161955Z AUTO 32004KT 10SM CLR M10/M14 A3059 RMK AO2
KONA 161935Z AUTO 34005KT 10SM SCT015 M10/M13 A3059 RMK AO2
KONA 161915Z AUTO 33009KT 10SM BKN015 M10/M13 A3060 RMK AO2
KONA 161855Z AUTO 34008KT 10SM OVC015 M10/M13 A3061 RMK AO2
KONA 161835Z AUTO 34006KT 10SM OVC015 M11/M14 A3062 RMK AO2
KONA 161815Z AUTO 34006KT 10SM OVC015 M11/M14 A3062 RMK AO2
KONA 161755Z AUTO 33010KT 10SM OVC015 M11/M14 A3063 RMK AO2
KONA 161735Z AUTO 34012KT 10SM OVC015 M11/M15 A3065 RMK AO2
KONA 161716Z AUTO 35006KT 10SM OVC015 M12/M15 RMK AO2
KONA 161655Z AUTO 34011KT 10SM OVC015 M12/M15 RMK AO2
KONA 161635Z AUTO 32009KT 10SM BKN015 BKN070 M12/M15 RMK AO2
KONA 161615Z AUTO 31007KT 10SM BKN013 BKN070 M12/M15 RMK AO2
KONA 161555Z AUTO 30005KT 10SM OVC013 M12/M15 RMK AO2
KONA 161535Z AUTO 32006KT 10SM OVC013 M13/M16 RMK AO2
KONA 161515Z AUTO 33006KT 10SM OVC013 M14/M16 RMK AO2
KONA 161455Z AUTO 33005KT 10SM OVC013 M15/M18 RMK AO2
KONA 161435Z AUTO 32004KT 10SM BKN013 M16/M18 RMK AO2
KONA 161415Z AUTO 32005KT 10SM CLR M16/M18 RMK AO2
KONA 161355Z AUTO 30005KT 10SM CLR M16/M18 RMK AO2
KONA 161335Z AUTO 29004KT 10SM CLR M17/M20 RMK AO2
KONA 161315Z AUTO 33004KT 10SM CLR M17/M19 RMK AO2
KONA 161255Z AUTO 31003KT 10SM CLR M17/M18 RMK AO2
KONA 161235Z AUTO 32006KT 10SM CLR M16/M18 RMK AO2
KONA 161215Z AUTO 33005KT 10SM CLR M16/M18 RMK AO2
KONA 161155Z AUTO 32007KT 10SM SCT018 M14/M17 RMK AO2
KONA 161135Z AUTO 33008KT 10SM BKN018 M13/M16 RMK AO2
KONA 161115Z AUTO 33010KT 10SM OVC018 M12/M15 RMK AO2
KONA 161055Z AUTO 33008KT 10SM OVC018 M12/M15 RMK AO2
KONA 161035Z AUTO 33009KT 10SM OVC018 M12/M15 RMK AO2
KONA 161015Z AUTO 32009KT 10SM OVC018 M12/M15 RMK AO2
KONA 160955Z AUTO 33010KT 10SM BKN018 OVC060 M12/M15 RMK AO2
KONA 160935Z AUTO 32011KT 10SM SCT020 OVC050 M12/M15 RMK AO2
KONA 160915Z AUTO 32007KT 10SM OVC050 M12/M15 RMK AO2
KONA 160855Z AUTO 33009KT 10SM OVC050 M12/M15 RMK AO2
KONA 160836Z AUTO 32009KT 10SM OVC050 M12/M15 RMK AO2
KONA 160815Z AUTO 33009KT 10SM OVC050 M12/M15 RMK AO2
KONA 160755Z AUTO 32009G15KT 7SM -SN OVC050 M12/M15 RMK AO2
KONA 160735Z AUTO 32010KT 5SM -SN SCT010 SCT018 OVC048 M12/M15 RMK AO2
KONA 160715Z AUTO 32010KT 10SM -SN SCT033 OVC050 M12/M15 RMK AO2
KONA 160655Z AUTO 33011G17KT 10SM OVC031 M12/M15 RMK AO2
KONA 160636Z AUTO 32012KT 10SM OVC027 M12/M15 RMK AO2
KONA 160615Z AUTO 32015G18KT 10SM OVC023 M12/M15 RMK AO2
KONA 160555Z AUTO 32012KT 10SM OVC021 M12/M15 RMK AO2
KONA 160535Z AUTO 32009KT 10SM BKN021 OVC029 M12/M15 RMK AO2
KONA 160515Z AUTO 32010KT 10SM BKN023 OVC029 M12/M15 RMK AO2
KONA 160455Z AUTO 33011KT 10SM OVC023 M12/M15 RMK AO2
KONA 160435Z AUTO 31011G15KT 10SM -SN OVC023 M12/M15 RMK AO2
KONA 160415Z AUTO 32013KT 10SM OVC023 M12/M15 RMK AO2
KONA 160355Z AUTO 33009G16KT 10SM BKN023 BKN060 OVC100 M12/M16 RMK AO2
KONA 160335Z AUTO 32012KT 10SM SCT013 SCT023 BKN060 M13/M16 RMK AO2
KONA 160315Z AUTO 33013G17KT 10SM SCT015 OVC050 M12/M16 RMK AO2
KONA 160255Z AUTO 33010KT 10SM SCT017 BKN044 OVC050 M12/M16 RMK AO2
KONA 160235Z AUTO 32014G17KT 10SM -SN SCT013 BKN018 OVC046 M13/M16 RMK AO2
KONA 160215Z AUTO 32012KT 7SM OVC013 M12/M15 RMK AO2
KONA 160155Z AUTO 32012G15KT 7SM -SN OVC015 M12/M15 RMK AO2
KONA 160135Z AUTO 32011G18KT 7SM OVC015 M12/M15 RMK AO2
KONA 160115Z AUTO 32011KT 7SM -SN OVC015 M12/M16 RMK AO2
KONA 160055Z AUTO 33013G20KT 7SM BKN017 OVC030 M12/M15 RMK AO2
KONA 160035Z AUTO 33011KT 10SM SCT015 BKN030 OVC070 M12/M16 RMK AO2
KONA 160015Z AUTO 32011G18KT 5SM -SN BKN013 BKN024 OVC032 M12/M16 RMK AO2
KONA 152355Z AUTO 32012G17KT 5SM HZ SCT011 SCT017 OVC024 M12/M16 RMK AO2
KONA 152335Z AUTO 31015KT 10SM OVC024 M12/M16 RMK AO2
KONA 152315Z AUTO 31008KT 7SM OVC022 M12/M16 RMK AO2
KONA 152255Z AUTO 31007KT 7SM BKN020 OVC025 M12/M16 RMK AO2
KONA 152235Z AUTO 31010KT 10SM SCT017 OVC025 M12/M16 RMK AO2
KONA 152215Z AUTO 32012KT 5SM HZ OVC017 M12/M16 RMK AO2
KONA 152155Z AUTO 33014G18KT 10SM OVC017 M12/M16 RMK AO2
KONA 152135Z AUTO 33013KT 10SM BKN019 OVC025 M12/M16 RMK AO2
KONA 152115Z AUTO 33015G21KT 7SM BKN021 OVC035 M12/M16 RMK AO2
KONA 152055Z AUTO 33017G23KT 10SM BKN023 BKN029 OVC100 M12/M16 RMK AO2
KONA 152035Z AUTO 33016G21KT 10SM BKN023 BKN042 OVC100 M12/M16 RMK AO2
KONA 152015Z AUTO 33018G25KT 10SM SCT019 BKN042 OVC100 M11/M16 RMK AO2
KONA 151955Z AUTO 32015G26KT 10SM BKN019 OVC025 M12/M16 RMK AO2
KONA 151935Z AUTO 33017G22KT 10SM BKN019 OVC095 M12/M16 RMK AO2
KONA 151915Z AUTO 33017G23KT 10SM BKN021 BKN025 OVC095 M11/M16 RMK AO2
KONA 151855Z AUTO 33013G20KT 7SM BKN021 OVC027 M11/M16 RMK AO2
KONA 151835Z AUTO 33012G18KT 7SM OVC023 M11/M16 RMK AO2
KONA 151815Z AUTO 33012G19KT 7SM OVC023 M11/M15 RMK AO2
KONA 151755Z AUTO 32016G22KT 5SM HZ BKN017 OVC023 M11/M15 RMK AO2
KONA 151735Z AUTO 32014G19KT 5SM HZ OVC017 M11/M15 RMK AO2
KONA 151715Z AUTO 33015G22KT 5SM HZ OVC017 M12/M15 RMK AO2
KONA 151655Z AUTO 32013G19KT 7SM OVC019 M12/M15 RMK AO2
KONA 151635Z AUTO 33014G20KT 7SM OVC017 M12/M15 RMK AO2
KONA 151615Z AUTO 31011G17KT 5SM HZ OVC017 M12/M15 RMK AO2
KONA 151555Z AUTO 32012G15KT 5SM HZ OVC017 M12/M15 RMK AO2
KONA 151535Z AUTO 32012G21KT 5SM HZ OVC017 M12/M15 RMK AO2
KONA 151515Z AUTO 31013G20KT 5SM HZ OVC020 M12/M15 RMK AO2
KONA 151455Z AUTO 32014G19KT 7SM OVC022 M12/M15 RMK AO2
KONA 151435Z AUTO 32014G20KT 7SM SCT019 BKN023 OVC080 M12/M15 RMK AO2
KONA 151415Z AUTO 31014G21KT 7SM SCT023 SCT047 OVC080 M12/M15 RMK AO2
KONA 151355Z AUTO 32015G22KT 5SM HZ OVC080 M12/M15 RMK AO2
KONA 151335Z AUTO 31015G22KT 10SM SCT065 OVC080 M11/M14 RMK AO2
KONA 151315Z AUTO 32015KT 7SM SCT018 BKN065 OVC080 M11/M13 RMK AO2
KONA 151255Z AUTO 32015G23KT 7SM SCT016 BKN065 OVC080 M11/M14 RMK AO2
KONA 151235Z AUTO 32012G21KT 7SM BKN016 BKN032 OVC080 M10/M12 RMK AO2
KONA 151215Z AUTO 32016KT 7SM BKN016 BKN030 OVC075 M10/M12 RMK AO2
KONA 151155Z AUTO 32013G19KT 5SM -SN BKN016 OVC075 M10/M12 RMK AO2
KONA 151135Z AUTO 32014KT 7SM SCT016 SCT039 OVC075 M10/M12 RMK AO2
KONA 151115Z AUTO 32015G21KT 10SM SCT016 SCT036 OVC075 M09/M12 RMK AO2